createdAt,value
2024-05-09T00:00:36.287Z,89.25
2024-05-09T00:03:10.984Z,89.23
2024-05-09T00:05:40.932Z,89.21
2024-05-09T00:08:09.502Z,89.19
2024-05-09T00:10:38.717Z,88.97
2024-05-09T00:13:07.566Z,89.36
2024-05-09T00:15:35.202Z,89.42
2024-05-09T00:18:03.514Z,89.68
2024-05-09T00:20:37.811Z,89.45
2024-05-09T00:23:08.845Z,89.37
2024-05-09T00:25:36.160Z,89.48
2024-05-09T00:28:03.188Z,89.42
2024-05-09T00:30:35.145Z,89.51
2024-05-09T00:33:05.503Z,89.62
2024-05-09T00:35:33.335Z,89.37
2024-05-09T00:38:00.392Z,89.38
2024-05-09T00:40:37.640Z,89.56
2024-05-09T00:43:07.398Z,89.71
2024-05-09T00:45:34.926Z,89.48
2024-05-09T00:48:05.223Z,90.00
2024-05-09T00:50:38.075Z,89.96
2024-05-09T00:53:11.450Z,89.76
2024-05-09T00:55:39.350Z,89.91
2024-05-09T00:58:10.634Z,90.10
2024-05-09T01:00:40.294Z,89.96
2024-05-09T01:03:11.014Z,90.09
2024-05-09T01:05:40.199Z,89.98
2024-05-09T01:08:08.006Z,90.03
2024-05-09T01:10:36.274Z,90.21
2024-05-09T01:13:04.605Z,90.11
2024-05-09T01:15:31.936Z,90.14
2024-05-09T01:18:01.687Z,90.59
2024-05-09T01:20:39.132Z,90.44
2024-05-09T01:23:10.021Z,90.41
2024-05-09T01:25:37.196Z,90.63
2024-05-09T01:28:04.129Z,90.45
2024-05-09T01:30:34.559Z,90.56
2024-05-09T01:33:04.467Z,90.29
2024-05-09T01:35:31.677Z,90.91
2024-05-09T01:37:58.423Z,90.58
2024-05-09T01:40:33.784Z,90.56
2024-05-09T01:43:04.877Z,90.60
2024-05-09T01:45:31.756Z,90.57
2024-05-09T01:47:58.895Z,90.67
2024-05-09T01:50:37.069Z,90.59
2024-05-09T01:53:07.812Z,91.00
2024-05-09T01:55:34.760Z,90.93
2024-05-09T01:58:01.479Z,91.14
2024-05-09T02:00:37.934Z,91.22
2024-05-09T02:03:15.402Z,91.23
2024-05-09T02:05:46.392Z,91.16
2024-05-09T02:08:15.188Z,91.50
2024-05-09T02:10:42.940Z,91.47
2024-05-09T02:13:09.847Z,91.74
2024-05-09T02:15:36.622Z,91.49
2024-05-09T02:18:03.845Z,91.30
2024-05-09T02:20:36.164Z,91.14
2024-05-09T02:23:05.287Z,91.33
2024-05-09T02:25:32.772Z,91.43
2024-05-09T02:27:59.776Z,91.41
2024-05-09T02:30:36.178Z,91.58
2024-05-09T02:33:07.671Z,91.08
2024-05-09T02:35:34.809Z,91.58
2024-05-09T02:38:01.831Z,91.32
2024-05-09T02:40:36.139Z,90.98
2024-05-09T02:43:06.043Z,91.02
2024-05-09T02:45:33.211Z,91.22
2024-05-09T02:48:00.520Z,90.97
2024-05-09T02:50:34.499Z,91.33
2024-05-09T02:53:05.603Z,90.92
2024-05-09T02:55:32.651Z,90.87
2024-05-09T02:57:59.477Z,91.24
2024-05-09T03:00:34.700Z,90.90
2024-05-09T03:03:08.308Z,91.13
2024-05-09T03:05:36.216Z,91.39
2024-05-09T03:08:03.311Z,91.33
2024-05-09T03:10:35.617Z,90.95
2024-05-09T03:13:14.050Z,91.32
2024-05-09T03:15:42.749Z,91.39
2024-05-09T03:18:10.049Z,90.98
2024-05-09T03:20:38.199Z,91.01
2024-05-09T03:23:08.107Z,90.86
2024-05-09T03:25:36.062Z,91.15
2024-05-09T03:28:02.944Z,91.07
2024-05-09T03:30:38.661Z,91.11
2024-05-09T03:33:15.445Z,91.06
2024-05-09T03:35:46.042Z,91.20
2024-05-09T03:38:13.014Z,90.86
2024-05-09T03:40:47.414Z,91.17
2024-05-09T03:43:14.591Z,90.74
2024-05-09T03:45:42.909Z,91.19
2024-05-09T03:48:10.107Z,91.02
2024-05-09T03:50:37.510Z,91.32
2024-05-09T03:53:04.937Z,91.29
2024-05-09T03:55:31.893Z,91.13
2024-05-09T03:57:58.815Z,91.04
2024-05-09T04:00:31.763Z,91.23
2024-05-09T04:03:06.098Z,91.49
2024-05-09T04:05:34.677Z,91.49
2024-05-09T04:08:01.642Z,91.37
2024-05-09T04:10:33.247Z,91.40
2024-05-09T04:13:01.944Z,91.48
2024-05-09T04:15:31.959Z,91.68
2024-05-09T04:17:59.119Z,91.71
2024-05-09T04:20:36.818Z,91.65
2024-05-09T04:23:07.890Z,91.96
2024-05-09T04:25:35.373Z,91.64
2024-05-09T04:28:02.267Z,91.83
2024-05-09T04:30:36.739Z,91.88
2024-05-09T04:33:07.858Z,92.06
2024-05-09T04:35:36.237Z,91.93
2024-05-09T04:38:03.525Z,92.03
2024-05-09T04:40:34.268Z,92.04
2024-05-09T04:43:07.579Z,92.36
2024-05-09T04:45:34.638Z,92.68
2024-05-09T04:48:02.277Z,92.59
2024-05-09T04:50:35.734Z,92.50
2024-05-09T04:53:07.005Z,92.83
2024-05-09T04:55:34.772Z,92.34
2024-05-09T04:58:01.910Z,92.25
2024-05-09T05:00:35.808Z,92.49
2024-05-09T05:03:07.917Z,92.34
2024-05-09T05:05:38.205Z,92.62
2024-05-09T05:08:05.871Z,92.49
2024-05-09T05:10:36.267Z,92.37
2024-05-09T05:13:17.974Z,92.90
2024-05-09T05:15:56.459Z,92.76
2024-05-09T05:18:29.218Z,92.61
2024-05-09T05:20:57.053Z,92.00
2024-05-09T05:23:24.769Z,91.85
2024-05-09T05:25:53.230Z,91.64
2024-05-09T05:28:20.537Z,91.34
2024-05-09T05:30:47.460Z,90.43
2024-05-09T05:33:16.066Z,89.95
2024-05-09T05:35:43.358Z,89.49
2024-05-09T05:38:11.244Z,89.22
2024-05-09T05:40:39.499Z,88.82
2024-05-09T05:43:09.772Z,88.28
2024-05-09T05:45:36.883Z,87.67
2024-05-09T05:48:05.944Z,87.17
2024-05-09T05:50:36.539Z,86.42
2024-05-09T05:53:08.941Z,85.79
2024-05-09T05:55:40.706Z,85.30
2024-05-09T05:58:11.400Z,84.19
2024-05-09T06:00:40.112Z,84.13
2024-05-09T06:03:09.484Z,83.75
2024-05-09T06:05:37.310Z,82.52
2024-05-09T06:08:04.725Z,82.39
2024-05-09T06:10:37.999Z,81.70
2024-05-09T06:13:07.506Z,80.24
2024-05-09T06:15:34.380Z,80.26
2024-05-09T06:18:01.684Z,78.83
2024-05-09T06:20:35.658Z,78.16
2024-05-09T06:23:08.814Z,77.53
2024-05-09T06:25:36.320Z,77.58
2024-05-09T06:28:03.363Z,77.39
2024-05-09T06:30:37.587Z,76.45
2024-05-09T06:33:07.864Z,76.05
2024-05-09T06:35:35.316Z,75.06
2024-05-09T06:38:02.530Z,74.34
2024-05-09T06:40:36.388Z,73.71
2024-05-09T06:43:17.570Z,73.67
2024-05-09T06:45:49.445Z,73.03
2024-05-09T06:48:19.458Z,73.87
2024-05-09T06:50:46.931Z,74.49
2024-05-09T06:53:15.001Z,73.71
2024-05-09T06:55:42.092Z,72.80
2024-05-09T06:58:09.522Z,72.02
2024-05-09T07:00:39.772Z,71.15
2024-05-09T07:03:14.779Z,69.77
2024-05-09T07:05:43.889Z,69.62
2024-05-09T07:08:10.799Z,68.94
2024-05-09T07:10:37.959Z,68.99
2024-05-09T07:13:12.274Z,68.64
2024-05-09T07:15:39.954Z,68.89
2024-05-09T07:18:10.945Z,68.76
2024-05-09T07:20:39.340Z,69.22
2024-05-09T07:23:08.937Z,68.59
2024-05-09T07:25:35.693Z,68.46
2024-05-09T07:28:02.464Z,67.49
2024-05-09T07:30:33.496Z,67.08
2024-05-09T07:33:02.566Z,67.87
2024-05-09T07:35:30.411Z,67.48
2024-05-09T07:37:57.484Z,68.19
2024-05-09T07:40:32.796Z,68.75
2024-05-09T07:43:07.792Z,69.02
2024-05-09T07:52:32.668Z,67.67
2024-05-09T07:55:53.956Z,68.13
2024-05-09T07:58:20.918Z,67.65
2024-05-09T08:00:47.725Z,66.93
2024-05-09T08:03:14.541Z,67.24
2024-05-09T08:05:41.529Z,66.53
2024-05-09T08:08:08.845Z,66.83
2024-05-09T08:10:35.581Z,66.55
2024-05-09T08:13:02.575Z,66.72
2024-05-09T08:15:29.609Z,67.21
2024-05-09T08:17:56.660Z,67.50
2024-05-09T08:20:30.951Z,67.98
2024-05-09T08:23:01.567Z,66.48
2024-05-09T08:25:28.599Z,66.51
2024-05-09T08:27:55.359Z,66.59
2024-05-09T08:30:30.012Z,66.89
2024-05-09T08:33:03.853Z,66.13
2024-05-09T08:35:30.662Z,65.72
2024-05-09T08:37:57.597Z,65.67
2024-05-09T08:40:31.069Z,65.67
2024-05-09T08:43:02.865Z,65.28
2024-05-09T08:45:31.433Z,65.52
2024-05-09T08:48:01.378Z,65.37
2024-05-09T08:50:35.934Z,63.95
2024-05-09T08:53:06.021Z,62.70
2024-05-09T08:55:32.941Z,62.71
2024-05-09T08:58:03.649Z,62.13
2024-05-09T09:00:36.793Z,62.62
2024-05-09T09:03:09.128Z,62.53
2024-05-09T09:05:39.696Z,62.72
2024-05-09T09:08:08.228Z,61.46
2024-05-09T09:10:35.701Z,61.46
2024-05-09T09:13:04.746Z,61.94
2024-05-09T09:15:32.254Z,60.85
2024-05-09T09:18:02.179Z,61.03
2024-05-09T09:20:36.310Z,59.98
2024-05-09T09:23:04.693Z,60.34
2024-05-09T09:25:32.103Z,60.09
2024-05-09T09:27:59.217Z,59.64
2024-05-09T09:30:36.382Z,58.54
2024-05-09T09:33:06.248Z,59.30
2024-05-09T09:35:34.192Z,58.40
2024-05-09T09:38:05.926Z,57.83
2024-05-09T09:40:42.396Z,58.24
2024-05-09T09:43:18.787Z,54.75
2024-05-09T09:45:49.887Z,56.72
2024-05-09T09:48:16.786Z,55.97
2024-05-09T09:50:45.422Z,55.74
2024-05-09T09:53:13.626Z,53.98
2024-05-09T09:55:40.471Z,53.83
2024-05-09T09:58:09.686Z,52.96
2024-05-09T10:00:38.873Z,53.46
2024-05-09T10:03:05.735Z,53.55
2024-05-09T10:05:34.369Z,51.54
2024-05-09T10:08:06.473Z,52.45
2024-05-09T10:10:36.674Z,51.75
2024-05-09T10:13:04.683Z,52.05
2024-05-09T10:15:46.863Z,51.54
2024-05-09T10:18:14.837Z,51.07
2024-05-09T10:20:46.160Z,50.74
2024-05-09T10:23:26.547Z,50.01
2024-05-09T10:26:05.214Z,50.65
2024-05-09T10:28:33.865Z,51.28
2024-05-09T10:31:20.803Z,50.76
2024-05-09T10:33:50.250Z,50.99
2024-05-09T10:36:27.205Z,51.60
2024-05-09T10:38:55.114Z,52.52
2024-05-09T10:41:23.491Z,51.46
2024-05-09T10:43:50.970Z,52.56
2024-05-09T10:46:21.183Z,52.42
2024-05-09T10:48:48.839Z,51.75
2024-05-09T10:51:18.311Z,51.12
2024-05-09T10:53:47.220Z,49.17
2024-05-09T10:56:14.893Z,49.23
2024-05-09T10:58:42.209Z,49.00
2024-05-09T11:01:10.263Z,46.01
2024-05-09T11:03:38.153Z,48.03
2024-05-09T11:06:05.770Z,46.45
2024-05-09T11:08:33.548Z,46.37
2024-05-09T11:11:00.547Z,45.75
2024-05-09T11:13:31.526Z,42.13
2024-05-09T11:16:00.023Z,44.58
2024-05-09T11:18:32.320Z,46.02
2024-05-09T11:21:02.427Z,46.23
2024-05-09T11:23:32.046Z,45.98
2024-05-09T11:25:59.434Z,45.75
2024-05-09T11:28:28.810Z,45.04
2024-05-09T11:31:07.587Z,44.72
2024-05-09T11:33:43.816Z,45.50
2024-05-09T11:36:11.088Z,42.90
2024-05-09T11:38:37.898Z,43.65
2024-05-09T11:41:05.592Z,44.79
2024-05-09T11:43:33.058Z,43.80
2024-05-09T11:46:00.531Z,44.19
2024-05-09T11:48:27.798Z,45.13
2024-05-09T11:50:55.456Z,44.11
2024-05-09T11:53:22.817Z,43.40
2024-05-09T11:55:49.732Z,42.76
2024-05-09T11:58:18.186Z,43.79
2024-05-09T12:00:45.827Z,45.71
2024-05-09T12:03:13.044Z,44.66
2024-05-09T12:05:39.916Z,46.58
2024-05-09T12:08:07.215Z,46.81
2024-05-09T12:10:35.987Z,45.29
2024-05-09T12:13:05.526Z,45.06
2024-05-09T12:15:36.275Z,44.41
2024-05-09T12:18:04.438Z,44.69
2024-05-09T12:20:36.940Z,43.68
2024-05-09T12:23:06.768Z,42.23
2024-05-09T12:25:33.762Z,43.33
2024-05-09T12:28:01.214Z,44.94
2024-05-09T12:30:36.226Z,45.05
2024-05-09T12:33:11.855Z,44.80
2024-05-09T12:35:40.340Z,45.28
2024-05-09T12:38:07.032Z,45.74
2024-05-09T12:40:37.088Z,45.37
2024-05-09T12:43:10.310Z,46.15
2024-05-09T12:45:38.385Z,45.60
2024-05-09T12:48:08.374Z,45.69
2024-05-09T12:50:36.585Z,46.30
2024-05-09T12:53:04.571Z,44.83
2024-05-09T12:55:40.499Z,45.46
2024-05-09T12:58:16.406Z,46.85
2024-05-09T13:00:43.770Z,46.78
2024-05-09T13:03:11.143Z,46.76
2024-05-09T13:05:38.241Z,45.91
2024-05-09T13:08:05.370Z,44.23
2024-05-09T13:10:33.378Z,45.40
2024-05-09T13:13:01.690Z,46.81
2024-05-09T13:15:30.455Z,46.20
2024-05-09T13:18:00.444Z,47.36
2024-05-09T13:20:33.421Z,47.64
2024-05-09T13:23:03.491Z,47.73
2024-05-09T13:25:30.286Z,47.55
2024-05-09T13:27:57.695Z,46.97
2024-05-09T13:30:30.037Z,47.33
2024-05-09T13:33:06.075Z,48.50
2024-05-09T13:35:35.354Z,49.10
2024-05-09T13:38:03.230Z,52.29
2024-05-09T13:40:34.299Z,53.78
2024-05-09T13:43:04.353Z,55.67
2024-05-09T13:45:31.495Z,56.13
2024-05-09T13:47:58.860Z,56.00
2024-05-09T13:50:33.307Z,57.50
2024-05-09T13:53:03.084Z,56.42
2024-05-09T13:55:29.995Z,57.29
2024-05-09T13:57:56.913Z,56.42
2024-05-09T14:00:37.790Z,56.75
2024-05-09T14:03:10.812Z,56.22
2024-05-09T14:05:38.212Z,57.04
2024-05-09T14:08:05.758Z,56.28
2024-05-09T14:10:32.972Z,56.73
2024-05-09T14:13:01.269Z,57.11
2024-05-09T14:15:28.309Z,56.68
2024-05-09T14:17:55.669Z,56.75
2024-05-09T14:20:30.574Z,56.78
2024-05-09T14:23:00.395Z,57.79
2024-05-09T14:25:28.640Z,57.79
2024-05-09T14:27:57.457Z,57.04
2024-05-09T14:30:31.022Z,55.52
2024-05-09T14:33:03.766Z,56.00
2024-05-09T14:35:30.636Z,54.74
2024-05-09T14:37:57.297Z,54.52
2024-05-09T14:42:53.640Z,55.19
2024-05-09T14:45:20.421Z,54.63
2024-05-09T14:47:47.219Z,55.41
2024-05-09T14:50:23.518Z,54.65
2024-05-09T14:52:54.833Z,55.08
2024-05-09T14:55:21.621Z,54.50
2024-05-09T14:57:48.797Z,55.21
2024-05-09T15:00:24.746Z,55.05
2024-05-09T15:02:53.202Z,55.18
2024-05-09T15:05:20.111Z,55.49
2024-05-09T15:07:46.935Z,56.38
2024-05-09T15:10:23.860Z,56.45
2024-05-09T15:12:58.291Z,55.70
2024-05-09T15:15:25.009Z,55.45
2024-05-09T15:17:52.537Z,55.97
2024-05-09T15:20:27.605Z,56.77
2024-05-09T15:23:00.960Z,56.70
2024-05-09T15:25:27.728Z,56.27
2024-05-09T15:27:54.891Z,56.20
2024-05-09T15:30:29.916Z,56.23
2024-05-09T15:32:59.234Z,56.26
2024-05-09T15:35:25.982Z,57.00
2024-05-09T15:37:52.798Z,56.34
2024-05-09T15:40:30.393Z,56.67
2024-05-09T15:43:04.788Z,56.20
2024-05-09T15:45:32.029Z,56.35
2024-05-09T15:47:59.414Z,56.22
2024-05-09T15:50:36.246Z,56.20
2024-05-09T15:53:07.910Z,56.96
2024-05-09T15:55:35.678Z,57.34
2024-05-09T15:58:03.852Z,57.42
2024-05-09T16:00:38.350Z,57.45
2024-05-09T16:03:09.419Z,58.74
2024-05-09T16:05:36.926Z,59.08
2024-05-09T16:08:04.630Z,59.27
2024-05-09T16:10:33.351Z,59.31
2024-05-09T16:13:02.278Z,59.74
2024-05-09T16:15:29.815Z,59.18
2024-05-09T16:17:56.885Z,59.96
2024-05-09T16:22:54.483Z,59.42
2024-05-09T16:25:21.207Z,59.42
2024-05-09T16:27:48.231Z,59.33
2024-05-09T16:30:21.237Z,59.31
2024-05-09T16:32:55.016Z,59.73
2024-05-09T16:35:21.934Z,59.34
2024-05-09T16:37:49.006Z,59.68
2024-05-09T16:40:24.944Z,60.07
2024-05-09T16:43:03.742Z,60.23
2024-05-09T16:45:30.690Z,60.26
2024-05-09T16:47:58.062Z,60.31
2024-05-09T16:50:29.519Z,60.85
2024-05-09T16:52:59.792Z,61.05
2024-05-09T16:55:26.798Z,61.32
2024-05-09T16:57:53.671Z,61.42
2024-05-09T17:00:31.080Z,61.13
2024-05-09T17:03:06.678Z,61.34
2024-05-09T17:05:34.303Z,61.39
2024-05-09T17:08:01.513Z,61.47
2024-05-09T17:10:32.921Z,61.54
2024-05-09T17:13:02.341Z,61.00
2024-05-09T17:15:29.552Z,61.14
2024-05-09T17:17:56.676Z,61.30
2024-05-09T17:20:31.304Z,61.94
2024-05-09T17:23:02.365Z,62.00
2024-05-09T17:25:29.500Z,61.70
2024-05-09T17:27:56.785Z,61.73
2024-05-09T17:30:31.956Z,62.21
2024-05-09T17:33:03.635Z,62.22
2024-05-09T17:35:31.719Z,61.96
2024-05-09T17:37:59.716Z,61.32
2024-05-09T17:40:32.699Z,60.60
2024-05-09T17:43:03.101Z,60.67
2024-05-09T17:45:30.346Z,60.98
2024-05-09T17:47:57.510Z,61.07
2024-05-09T17:50:31.304Z,61.66
2024-05-09T17:53:02.362Z,62.05
2024-05-09T17:55:29.368Z,63.21
2024-05-09T17:57:56.390Z,63.01
2024-05-09T18:00:33.237Z,64.27
2024-05-09T18:03:05.950Z,64.53
2024-05-09T18:05:33.172Z,64.58
2024-05-09T18:08:00.114Z,63.70
2024-05-09T18:10:33.765Z,64.24
2024-05-09T18:13:05.842Z,64.21
2024-05-09T18:15:33.078Z,64.24
2024-05-09T18:18:00.225Z,64.75
2024-05-09T18:20:37.083Z,65.13
2024-05-09T18:23:09.337Z,65.27
2024-05-09T18:25:35.988Z,65.44
2024-05-09T18:28:03.682Z,66.29
2024-05-09T18:30:35.000Z,66.59
2024-05-09T18:33:05.403Z,66.67
2024-05-09T18:35:33.514Z,67.42
2024-05-09T18:38:00.559Z,67.26
2024-05-09T18:40:33.989Z,67.98
2024-05-09T18:43:05.626Z,68.39
2024-05-09T18:45:33.765Z,68.71
2024-05-09T18:48:00.909Z,68.79
2024-05-09T18:50:34.501Z,69.11
2024-05-09T18:53:12.155Z,69.42
2024-05-09T18:55:40.596Z,69.17
2024-05-09T18:58:09.933Z,69.50
2024-05-09T19:00:39.626Z,70.05
2024-05-09T19:03:10.783Z,70.03
2024-05-09T19:05:40.560Z,70.88
2024-05-09T19:08:08.530Z,71.17
2024-05-09T19:10:38.465Z,71.21
2024-05-09T19:13:09.403Z,71.77
2024-05-09T19:15:39.711Z,72.15
2024-05-09T19:18:07.642Z,72.15
2024-05-09T19:20:36.243Z,72.11
2024-05-09T19:23:04.613Z,73.07
2024-05-09T19:25:32.098Z,73.09
2024-05-09T19:27:59.284Z,73.23
2024-05-09T19:30:36.335Z,73.64
2024-05-09T19:33:07.500Z,73.61
2024-05-09T19:35:34.297Z,74.08
2024-05-09T19:38:01.296Z,74.13
2024-05-09T19:40:32.106Z,74.56
2024-05-09T19:43:05.537Z,74.72
2024-05-09T19:45:34.425Z,74.82
2024-05-09T19:48:02.305Z,75.33
2024-05-09T19:50:39.641Z,75.11
2024-05-09T19:53:11.362Z,75.91
2024-05-09T19:55:38.527Z,75.63
2024-05-09T19:58:07.230Z,75.91
2024-05-09T20:00:38.255Z,75.90
2024-05-09T20:03:07.633Z,75.90
2024-05-09T20:05:35.453Z,75.72
2024-05-09T20:08:02.532Z,76.29
2024-05-09T20:10:32.730Z,76.41
2024-05-09T20:13:02.175Z,76.62
2024-05-09T20:15:29.353Z,76.72
2024-05-09T20:17:56.226Z,76.86
2024-05-09T20:20:33.089Z,77.00
2024-05-09T20:23:06.141Z,77.21
2024-05-09T20:25:33.126Z,77.34
2024-05-09T20:28:00.064Z,77.44
2024-05-09T20:30:32.052Z,77.87
2024-05-09T20:33:02.858Z,77.79
2024-05-09T20:35:32.132Z,78.15
2024-05-09T20:37:59.351Z,78.34
2024-05-09T20:40:32.041Z,78.31
2024-05-09T20:43:02.423Z,78.40
2024-05-09T20:45:29.136Z,78.76
2024-05-09T20:47:56.186Z,78.87
2024-05-09T20:50:29.345Z,79.10
2024-05-09T20:53:03.974Z,79.08
2024-05-09T20:55:30.762Z,79.33
2024-05-09T20:57:57.793Z,79.11
2024-05-09T21:00:34.521Z,79.74
2024-05-09T21:03:06.926Z,79.99
2024-05-09T21:05:34.819Z,80.21
2024-05-09T21:08:02.036Z,80.04
2024-05-09T21:10:32.790Z,80.22
2024-05-09T21:13:02.084Z,80.26
2024-05-09T21:15:29.443Z,80.28
2024-05-09T21:17:56.221Z,80.81
2024-05-09T21:20:28.903Z,81.10
2024-05-09T21:22:58.630Z,80.94
2024-05-09T21:25:25.650Z,80.67
2024-05-09T21:27:52.958Z,81.75
2024-05-09T21:30:31.446Z,81.61
2024-05-09T21:33:07.710Z,81.87
2024-05-09T21:35:34.623Z,82.02
2024-05-09T21:38:01.319Z,81.96
2024-05-09T21:40:34.154Z,81.94
2024-05-09T21:43:03.426Z,82.48
2024-05-09T21:45:30.247Z,82.33
2024-05-09T21:47:57.066Z,82.68
2024-05-09T21:50:31.786Z,82.58
2024-05-09T21:53:05.630Z,82.67
2024-05-09T21:55:34.780Z,82.93
2024-05-09T21:58:01.912Z,82.89
2024-05-09T22:00:35.643Z,83.54
2024-05-09T22:03:06.202Z,83.91
2024-05-09T22:05:33.360Z,83.89
2024-05-09T22:08:00.526Z,84.08
2024-05-09T22:10:33.700Z,83.81
2024-05-09T22:13:04.038Z,84.29
2024-05-09T22:15:37.074Z,84.42
2024-05-09T22:18:05.525Z,84.21
2024-05-09T22:20:37.287Z,84.95
2024-05-09T22:23:06.301Z,84.59
2024-05-09T22:25:33.491Z,84.89
2024-05-09T22:28:01.896Z,84.55
2024-05-09T22:30:35.825Z,85.21
2024-05-09T22:33:11.152Z,85.29
2024-05-09T22:35:39.461Z,85.48
2024-05-09T22:38:06.553Z,85.55
2024-05-09T22:40:43.002Z,85.47
2024-05-09T22:43:23.690Z,85.91
2024-05-09T22:45:53.081Z,86.27
2024-05-09T22:48:20.393Z,85.99
2024-05-09T22:50:47.265Z,86.09
2024-05-09T22:53:13.967Z,85.71
2024-05-09T22:55:40.862Z,85.86
2024-05-09T22:58:07.755Z,85.95
2024-05-09T23:00:34.971Z,86.04
2024-05-09T23:03:02.355Z,86.71
2024-05-09T23:05:29.707Z,86.80
2024-05-09T23:07:56.752Z,86.52
2024-05-09T23:10:31.440Z,86.28
2024-05-09T23:13:03.024Z,86.39
2024-05-09T23:15:30.085Z,86.36
2024-05-09T23:17:58.532Z,87.04
2024-05-09T23:20:35.451Z,86.52
2024-05-09T23:23:06.539Z,87.17
2024-05-09T23:25:33.392Z,86.88
2024-05-09T23:28:00.364Z,86.98
2024-05-09T23:30:34.722Z,87.16
2024-05-09T23:33:06.175Z,87.12
2024-05-09T23:35:33.105Z,86.78
2024-05-09T23:37:59.829Z,87.18
2024-05-09T23:40:35.057Z,86.85
2024-05-09T23:43:06.344Z,87.34
2024-05-09T23:45:33.448Z,87.39
2024-05-09T23:48:00.509Z,87.74
2024-05-09T23:50:34.283Z,87.48
2024-05-09T23:53:04.497Z,87.61
2024-05-09T23:55:32.224Z,87.78
2024-05-09T23:57:59.470Z,87.85
